createdAt,value
2018-01-22T00:00:10.672Z,10.90
2018-01-22T00:02:39.792Z,11.43
2018-01-22T00:05:08.144Z,12.00
2018-01-22T00:07:37.263Z,11.73
2018-01-22T00:10:05.622Z,12.20
2018-01-22T00:12:34.744Z,11.90
2018-01-22T00:15:03.099Z,11.53
2018-01-22T00:17:31.445Z,11.97
2018-01-22T00:19:59.880Z,12.33
2018-01-22T00:22:28.228Z,11.67
2018-01-22T00:24:57.342Z,11.77
2018-01-22T00:27:25.731Z,11.60
2018-01-22T00:29:54.108Z,11.80
2018-01-22T00:32:22.444Z,10.70
2018-01-22T00:34:50.804Z,12.13
2018-01-22T00:37:19.253Z,11.57
2018-01-22T00:39:47.604Z,11.93
2018-01-22T00:42:15.952Z,11.90
2018-01-22T00:44:44.299Z,11.63
2018-01-22T00:47:12.644Z,11.13
2018-01-22T00:49:41.748Z,11.43
2018-01-22T00:52:10.126Z,11.67
2018-01-22T00:54:38.610Z,14.37
2018-01-22T00:57:06.954Z,11.47
2018-01-22T00:59:35.403Z,11.37
2018-01-22T01:02:03.879Z,11.07
2018-01-22T01:04:32.219Z,10.03
2018-01-22T01:07:00.555Z,10.87
2018-01-22T01:09:28.893Z,11.07
2018-01-22T01:11:57.226Z,10.73
2018-01-22T01:14:25.596Z,16.50
2018-01-22T01:16:53.918Z,12.07
2018-01-22T01:19:22.274Z,12.27
2018-01-22T01:21:51.405Z,11.43
2018-01-22T01:24:19.717Z,12.07
2018-01-22T01:26:48.069Z,11.53
2018-01-22T01:29:16.440Z,11.60
2018-01-22T01:31:44.810Z,11.87
2018-01-22T01:34:13.184Z,11.20
2018-01-22T01:36:41.579Z,12.03
2018-01-22T01:39:09.910Z,11.47
2018-01-22T01:41:38.234Z,11.63
2018-01-22T01:44:07.098Z,11.10
2018-01-22T01:46:36.202Z,12.03
2018-01-22T01:49:04.547Z,12.07
2018-01-22T01:51:32.892Z,11.60
2018-01-22T01:54:01.239Z,11.90
2018-01-22T01:56:29.580Z,12.27
2018-01-22T01:58:57.920Z,11.90
2018-01-22T02:01:26.271Z,11.73
2018-01-22T02:03:55.302Z,12.43
2018-01-22T02:06:23.673Z,12.27
2018-01-22T02:08:52.059Z,11.80
2018-01-22T02:11:20.448Z,11.73
2018-01-22T02:13:48.808Z,11.70
2018-01-22T02:16:17.606Z,12.07
2018-01-22T02:18:45.935Z,12.07
2018-01-22T02:21:14.275Z,11.20
2018-01-22T02:23:42.616Z,12.20
2018-01-22T02:26:10.999Z,11.63
2018-01-22T02:28:39.384Z,12.20
2018-01-22T02:31:07.754Z,12.30
2018-01-22T02:33:36.138Z,12.00
2018-01-22T02:36:04.483Z,12.40
2018-01-22T02:38:32.819Z,11.70
2018-01-22T02:41:01.243Z,12.23
2018-01-22T02:43:30.348Z,11.93
2018-01-22T02:45:58.710Z,12.17
2018-01-22T02:48:27.044Z,12.97
2018-01-22T02:50:55.579Z,12.87
2018-01-22T02:53:24.004Z,13.10
2018-01-22T02:55:52.330Z,13.00
2018-01-22T02:58:20.674Z,12.30
2018-01-22T03:00:49.010Z,12.13
2018-01-22T03:03:18.131Z,12.40
2018-01-22T03:05:46.472Z,12.33
2018-01-22T03:08:14.820Z,11.27
2018-01-22T03:10:43.163Z,10.87
2018-01-22T03:13:11.505Z,11.73
2018-01-22T03:15:40.018Z,12.10
2018-01-22T03:18:08.339Z,11.70
2018-01-22T03:20:36.696Z,11.13
2018-01-22T03:23:05.118Z,10.93
2018-01-22T03:25:33.451Z,10.03
2018-01-22T03:28:01.810Z,10.47
2018-01-22T03:30:30.204Z,10.27
2018-01-22T03:32:58.595Z,10.47
2018-01-22T03:35:26.940Z,10.37
2018-01-22T03:37:55.308Z,10.13
2018-01-22T03:40:24.423Z,10.07
2018-01-22T03:42:52.760Z,11.27
2018-01-22T03:45:21.111Z,10.50
2018-01-22T03:47:49.458Z,11.23
2018-01-22T03:50:17.812Z,10.27
2018-01-22T03:52:46.945Z,10.57
2018-01-22T03:55:15.338Z,9.97
2018-01-22T03:57:43.688Z,9.67
2018-01-22T04:00:12.085Z,9.67
2018-01-22T04:02:40.419Z,9.40
2018-01-22T04:05:08.794Z,10.23
2018-01-22T04:07:37.161Z,10.83
2018-01-22T04:10:05.601Z,10.13
2018-01-22T04:12:33.945Z,10.00
2018-01-22T04:15:02.319Z,9.70
2018-01-22T04:17:30.654Z,10.23
2018-01-22T04:19:59.004Z,21.30
2018-01-22T04:22:27.330Z,10.47
2018-01-22T04:24:55.781Z,9.53
2018-01-22T04:27:24.111Z,8.97
2018-01-22T04:29:52.507Z,10.37
2018-01-22T04:32:20.903Z,11.43
2018-01-22T04:34:49.233Z,11.43
2018-01-22T04:37:17.581Z,9.27
2018-01-22T04:39:45.906Z,8.77
2018-01-22T04:42:14.320Z,9.27
2018-01-22T04:44:42.643Z,8.90
2018-01-22T04:47:10.982Z,8.47
2018-01-22T04:49:39.306Z,9.03
2018-01-22T04:52:07.756Z,8.43
2018-01-22T04:54:36.093Z,8.87
2018-01-22T04:57:05.214Z,8.93
2018-01-22T04:59:33.573Z,8.83
2018-01-22T05:02:02.659Z,8.47
2018-01-22T05:04:31.763Z,8.37
2018-01-22T05:07:00.858Z,8.17
2018-01-22T05:09:29.988Z,8.77
2018-01-22T05:11:58.330Z,8.87
2018-01-22T05:14:27.436Z,7.50
2018-01-22T05:16:58.121Z,8.63
2018-01-22T05:19:26.436Z,8.57
2018-01-22T05:21:54.782Z,8.23
2018-01-22T05:24:23.127Z,7.93
2018-01-22T05:26:51.466Z,7.83
2018-01-22T05:29:20.576Z,7.47
2018-01-22T05:31:49.682Z,8.33
2018-01-22T05:34:18.031Z,8.50
2018-01-22T05:36:46.368Z,7.77
2018-01-22T05:39:14.883Z,8.07
2018-01-22T05:41:43.218Z,9.40
2018-01-22T05:44:11.548Z,8.67
2018-01-22T05:46:39.878Z,8.57
2018-01-22T05:49:09.284Z,7.67
2018-01-22T05:51:37.836Z,8.40
2018-01-22T05:54:06.945Z,8.37
2018-01-22T05:56:35.283Z,7.87
2018-01-22T05:59:03.760Z,8.13
2018-01-22T06:01:32.082Z,8.97
2018-01-22T06:04:00.431Z,8.50
2018-01-22T06:06:28.774Z,8.60
2018-01-22T06:08:57.265Z,8.37
2018-01-22T06:11:25.724Z,8.97
2018-01-22T06:13:54.243Z,11.53
2018-01-22T06:16:22.595Z,10.60
2018-01-22T06:18:50.928Z,9.23
2018-01-22T06:21:19.266Z,8.77
2018-01-22T06:23:47.594Z,9.30
2018-01-22T06:26:15.942Z,9.43
2018-01-22T06:28:45.057Z,10.40
2018-01-22T06:31:14.153Z,9.47
2018-01-22T06:33:43.256Z,9.40
2018-01-22T06:36:11.650Z,8.97
2018-01-22T06:38:39.979Z,9.73
2018-01-22T06:41:08.311Z,8.83
2018-01-22T06:43:36.644Z,9.47
2018-01-22T06:46:05.076Z,10.03
2018-01-22T06:48:33.664Z,10.50
2018-01-22T06:51:01.990Z,14.10
2018-01-22T06:53:30.309Z,10.30
2018-01-22T06:55:58.649Z,10.63
2018-01-22T06:58:27.749Z,10.10
2018-01-22T07:00:56.101Z,11.50
2018-01-22T07:03:24.430Z,17.43
2018-01-22T07:05:52.763Z,13.37
2018-01-22T07:08:21.125Z,11.43
2018-01-22T07:10:49.450Z,11.77
2018-01-22T07:13:18.563Z,11.77
2018-01-22T07:15:46.906Z,11.80
2018-01-22T07:18:15.319Z,10.43
2018-01-22T07:20:43.799Z,11.40
2018-01-22T07:23:12.141Z,11.77
2018-01-22T07:25:40.492Z,10.50
2018-01-22T07:28:08.826Z,10.70
2018-01-22T07:30:37.172Z,10.50
2018-01-22T07:33:05.608Z,11.07
2018-01-22T07:35:34.016Z,10.37
2018-01-22T07:38:02.314Z,10.60
2018-01-22T07:40:30.797Z,9.10
2018-01-22T07:42:59.135Z,9.83
2018-01-22T07:45:27.468Z,9.97
2018-01-22T07:47:56.576Z,10.10
2018-01-22T07:50:25.696Z,10.33
2018-01-22T07:52:54.052Z,9.80
2018-01-22T07:55:22.382Z,9.53
2018-01-22T07:57:50.723Z,10.83
2018-01-22T08:00:19.062Z,9.80
2018-01-22T08:02:47.399Z,9.33
2018-01-22T08:05:15.747Z,9.67
2018-01-22T08:07:44.360Z,9.70
2018-01-22T08:10:12.682Z,9.17
2018-01-22T08:12:41.021Z,9.20
2018-01-22T08:15:09.347Z,9.93
2018-01-22T08:17:38.460Z,10.30
2018-01-22T08:20:06.812Z,9.43
2018-01-22T08:22:35.156Z,10.40
2018-01-22T08:25:03.486Z,13.07
2018-01-22T08:27:32.601Z,10.13
2018-01-22T08:30:00.991Z,9.93
2018-01-22T08:32:29.368Z,9.90
2018-01-22T08:34:57.702Z,9.80
2018-01-22T08:37:26.027Z,9.70
2018-01-22T08:39:54.391Z,9.77
2018-01-22T08:42:22.788Z,9.00
2018-01-22T08:44:51.120Z,9.13
2018-01-22T08:47:19.468Z,8.57
2018-01-22T08:49:47.787Z,8.73
2018-01-22T08:52:16.890Z,8.47
2018-01-22T08:54:45.982Z,9.03
2018-01-22T08:57:14.318Z,9.53
2018-01-22T08:59:42.651Z,8.77
2018-01-22T09:02:11.053Z,8.47
2018-01-22T09:04:39.505Z,8.27
2018-01-22T09:07:07.830Z,9.10
2018-01-22T09:09:36.179Z,8.87
2018-01-22T09:12:04.531Z,8.23
2018-01-22T09:14:32.871Z,8.27
2018-01-22T09:17:01.216Z,8.23
2018-01-22T09:19:29.544Z,7.80
2018-01-22T09:21:57.878Z,7.67
2018-01-22T09:24:26.211Z,7.90
2018-01-22T09:26:54.668Z,8.00
2018-01-22T09:29:22.965Z,7.50
2018-01-22T09:31:51.509Z,10.67
2018-01-22T09:34:19.826Z,8.00
2018-01-22T09:36:48.161Z,8.40
2018-01-22T09:39:16.631Z,7.23
2018-01-22T09:41:45.004Z,7.90
2018-01-22T09:44:13.382Z,7.70
2018-01-22T09:46:41.705Z,7.83
2018-01-22T09:49:10.224Z,7.83
2018-01-22T09:51:38.546Z,8.70
2018-01-22T09:54:06.936Z,8.00
2018-01-22T09:56:35.258Z,7.77
2018-01-22T09:59:04.350Z,8.00
2018-01-22T10:01:33.473Z,7.77
2018-01-22T10:04:01.860Z,7.73
2018-01-22T10:06:30.231Z,12.07
2018-01-22T10:08:58.580Z,8.20
2018-01-22T10:11:26.917Z,7.53
2018-01-22T10:13:55.259Z,7.43
2018-01-22T10:16:23.614Z,6.83
2018-01-22T10:18:52.734Z,6.60
2018-01-22T10:21:21.068Z,7.03
2018-01-22T10:23:49.411Z,6.37
2018-01-22T10:26:17.818Z,7.47
2018-01-22T10:28:46.271Z,6.80
2018-01-22T10:31:14.611Z,7.70
2018-01-22T10:33:43.697Z,6.30
2018-01-22T10:36:12.117Z,6.00
2018-01-22T10:38:40.486Z,5.63
2018-01-22T10:41:08.811Z,5.83
2018-01-22T10:43:37.147Z,5.60
2018-01-22T10:46:05.472Z,5.87
2018-01-22T10:48:34.016Z,5.90
2018-01-22T10:51:03.103Z,5.67
2018-01-22T10:53:31.456Z,5.07
2018-01-22T10:56:00.564Z,5.57
2018-01-22T10:58:29.660Z,5.00
2018-01-22T11:00:58.763Z,4.83
2018-01-22T11:03:27.154Z,4.93
2018-01-22T11:05:55.496Z,7.37
2018-01-22T11:08:23.898Z,4.43
2018-01-22T11:10:52.562Z,5.10
2018-01-22T11:13:20.953Z,5.50
2018-01-22T11:15:55.124Z,4.70
2018-01-22T11:18:23.444Z,4.80
2018-01-22T11:20:52.535Z,5.07
2018-01-22T11:23:20.878Z,4.27
2018-01-22T11:25:49.270Z,4.50
2018-01-22T11:28:17.646Z,4.87
2018-01-22T11:30:45.981Z,5.30
2018-01-22T11:33:14.358Z,5.27
2018-01-22T11:35:42.755Z,4.70
2018-01-22T11:38:11.107Z,4.33
2018-01-22T11:40:40.203Z,4.30
2018-01-22T11:43:09.303Z,4.57
2018-01-22T11:45:38.411Z,4.47
2018-01-22T11:48:06.726Z,4.53
2018-01-22T11:50:35.060Z,4.17
2018-01-22T11:53:03.401Z,4.50
2018-01-22T11:55:31.738Z,4.50
2018-01-22T11:58:00.747Z,4.80
2018-01-22T12:00:29.086Z,4.77
2018-01-22T12:02:58.195Z,4.73
2018-01-22T12:05:26.579Z,4.50
2018-01-22T12:07:54.909Z,4.73
2018-01-22T12:10:23.244Z,4.50
2018-01-22T12:12:51.572Z,4.87
2018-01-22T12:15:19.916Z,4.67
2018-01-22T12:17:48.295Z,4.57
2018-01-22T12:20:16.674Z,4.57
2018-01-22T12:22:44.994Z,4.67
2018-01-22T12:25:14.070Z,4.43
2018-01-22T12:27:42.405Z,4.60
2018-01-22T12:30:10.723Z,4.43
2018-01-22T12:32:39.062Z,5.00
2018-01-22T12:35:07.399Z,4.87
2018-01-22T12:37:36.512Z,4.70
2018-01-22T12:40:05.709Z,4.47
2018-01-22T12:42:34.815Z,5.10
2018-01-22T12:45:03.142Z,5.10
2018-01-22T12:47:31.468Z,4.77
2018-01-22T12:49:59.863Z,4.80
2018-01-22T12:52:28.186Z,4.77
2018-01-22T12:54:56.824Z,4.37
2018-01-22T12:57:25.139Z,5.07
2018-01-22T12:59:53.470Z,4.70
2018-01-22T13:02:21.807Z,4.43
2018-01-22T13:04:50.308Z,4.40
2018-01-22T13:07:19.425Z,4.03
2018-01-22T13:09:47.806Z,4.33
2018-01-22T13:12:16.188Z,4.60
2018-01-22T13:14:44.524Z,4.70
2018-01-22T13:17:12.860Z,4.60
2018-01-22T13:19:41.396Z,5.03
2018-01-22T13:22:10.243Z,5.67
2018-01-22T13:24:38.652Z,5.00
2018-01-22T13:27:07.185Z,5.33
2018-01-22T13:29:35.653Z,4.73
2018-01-22T13:32:04.741Z,5.20
2018-01-22T13:34:33.848Z,5.40
2018-01-22T13:37:02.181Z,4.70
2018-01-22T13:39:30.519Z,4.73
2018-01-22T13:41:58.852Z,4.53
2018-01-22T13:44:27.181Z,4.80
2018-01-22T13:46:55.522Z,5.43
2018-01-22T13:49:24.611Z,4.50
2018-01-22T13:51:52.942Z,5.37
2018-01-22T13:54:21.276Z,4.33
2018-01-22T13:56:50.386Z,4.40
2018-01-22T13:59:18.736Z,4.80
2018-01-22T14:01:47.056Z,4.87
2018-01-22T14:04:15.418Z,4.93
2018-01-22T14:06:44.515Z,4.60
2018-01-22T14:09:13.732Z,4.50
2018-01-22T14:11:42.083Z,4.80
2018-01-22T14:14:11.207Z,4.60
2018-01-22T14:16:39.548Z,5.07
2018-01-22T14:19:08.649Z,4.67
2018-01-22T14:21:37.000Z,4.87
2018-01-22T14:24:05.325Z,4.63
2018-01-22T14:26:34.412Z,5.20
2018-01-22T14:29:02.759Z,4.70
2018-01-22T14:31:31.247Z,5.30
2018-01-22T14:33:59.579Z,5.20
2018-01-22T14:36:27.909Z,4.40
2018-01-22T14:38:56.269Z,4.03
2018-01-22T14:41:24.600Z,4.50
2018-01-22T14:43:52.924Z,4.57
2018-01-22T14:46:21.359Z,4.73
2018-01-22T14:48:50.374Z,4.77
2018-01-22T14:51:18.686Z,4.73
2018-01-22T14:53:47.133Z,4.80
2018-01-22T14:56:15.700Z,4.70
2018-01-22T14:58:44.036Z,5.40
2018-01-22T15:01:12.463Z,5.27
2018-01-22T15:03:40.813Z,5.47
2018-01-22T15:06:09.926Z,5.53
2018-01-22T15:08:38.311Z,5.97
2018-01-22T15:11:06.692Z,6.30
2018-01-22T15:13:35.025Z,6.30
2018-01-22T15:16:03.368Z,7.77
2018-01-22T15:18:31.693Z,6.50
2018-01-22T15:21:00.808Z,6.50
2018-01-22T15:23:29.928Z,7.00
2018-01-22T15:25:58.955Z,7.90
2018-01-22T15:28:27.276Z,7.17
2018-01-22T15:30:56.366Z,8.83
2018-01-22T15:33:25.722Z,7.80
2018-01-22T15:35:54.051Z,7.77
2018-01-22T15:38:23.168Z,8.57
2018-01-22T15:40:52.133Z,8.80
2018-01-22T15:43:21.226Z,8.93
2018-01-22T15:45:50.384Z,9.43
2018-01-22T15:48:18.864Z,9.07
2018-01-22T15:50:47.191Z,9.03
2018-01-22T15:53:16.314Z,11.43
2018-01-22T15:55:44.659Z,12.27
2018-01-22T15:58:13.754Z,11.37
2018-01-22T16:00:42.875Z,12.77
2018-01-22T16:03:11.250Z,11.37
2018-01-22T16:05:39.697Z,11.07
2018-01-22T16:08:08.003Z,11.50
2018-01-22T16:10:36.348Z,11.40
2018-01-22T16:13:04.708Z,10.90
2018-01-22T16:15:33.064Z,11.07
2018-01-22T16:18:01.440Z,11.00
2018-01-22T16:20:29.780Z,12.30
2018-01-22T16:22:58.882Z,11.83
2018-01-22T16:25:27.992Z,12.30
2018-01-22T16:27:56.328Z,12.30
2018-01-22T16:30:24.844Z,13.33
2018-01-22T16:32:54.367Z,13.00
2018-01-22T16:35:22.723Z,14.53
2018-01-22T16:37:51.050Z,14.90
2018-01-22T16:40:19.395Z,15.03
2018-01-22T16:42:47.829Z,14.40
2018-01-22T16:45:16.153Z,14.10
2018-01-22T16:47:50.190Z,15.40
2018-01-22T16:50:18.543Z,15.00
2018-01-22T16:52:46.928Z,16.10
2018-01-22T16:55:16.025Z,16.47
2018-01-22T16:57:44.426Z,18.67
2018-01-22T17:00:12.779Z,17.27
2018-01-22T17:02:41.121Z,18.67
2018-01-22T17:05:09.582Z,18.93
2018-01-22T17:07:37.812Z,19.37
2018-01-22T17:10:06.166Z,19.67
2018-01-22T17:12:34.498Z,17.87
2018-01-22T17:15:02.827Z,18.53
2018-01-22T17:17:31.962Z,19.20
2018-01-22T17:20:00.419Z,18.57
2018-01-22T17:22:28.832Z,19.90
2018-01-22T17:24:57.177Z,19.37
2018-01-22T17:27:26.403Z,21.70
2018-01-22T17:29:54.744Z,19.47
2018-01-22T17:32:23.863Z,20.90
2018-01-22T17:34:52.224Z,20.87
2018-01-22T17:37:21.340Z,18.93
2018-01-22T17:39:49.741Z,18.80
2018-01-22T17:42:18.066Z,19.63
2018-01-22T17:44:47.199Z,17.07
2018-01-22T17:47:15.537Z,18.60
2018-01-22T17:49:44.047Z,17.93
2018-01-22T17:52:12.471Z,18.00
2018-01-22T17:54:40.807Z,18.47
2018-01-22T17:57:09.191Z,17.60
2018-01-22T17:59:37.576Z,19.27
2018-01-22T18:02:05.964Z,19.97
2018-01-22T18:04:34.311Z,20.00
2018-01-22T18:07:02.679Z,19.00
2018-01-22T18:09:31.838Z,18.70
2018-01-22T18:12:00.180Z,18.70
2018-01-22T18:14:29.300Z,18.37
2018-01-22T18:16:57.644Z,18.20
2018-01-22T18:19:26.164Z,19.07
2018-01-22T18:21:54.499Z,18.13
2018-01-22T18:24:24.418Z,19.10
2018-01-22T18:26:53.703Z,18.07
2018-01-22T18:29:22.030Z,18.07
2018-01-22T18:31:50.388Z,18.03
2018-01-22T18:34:19.470Z,19.67
2018-01-22T18:36:48.741Z,19.47
2018-01-22T18:39:17.116Z,19.20
2018-01-22T18:41:45.446Z,20.40
2018-01-22T18:44:13.791Z,19.77
2018-01-22T18:46:42.938Z,21.73
2018-01-22T18:49:11.276Z,21.77
2018-01-22T18:51:40.388Z,22.10
2018-01-22T18:54:08.779Z,22.33
2018-01-22T18:56:37.259Z,22.33
2018-01-22T18:59:05.616Z,23.83
2018-01-22T19:01:34.740Z,24.67
2018-01-22T19:04:03.100Z,25.07
2018-01-22T19:06:32.488Z,24.07
2018-01-22T19:09:00.827Z,24.60
2018-01-22T19:11:29.163Z,25.83
2018-01-22T19:13:57.552Z,25.43
2018-01-22T19:16:25.903Z,25.03
2018-01-22T19:18:55.016Z,27.23
2018-01-22T19:21:24.191Z,26.27
2018-01-22T19:23:52.548Z,25.93
2018-01-22T19:26:20.875Z,29.27
2018-01-22T19:28:49.220Z,28.83
2018-01-22T19:31:17.868Z,32.50
2018-01-22T19:33:46.239Z,28.90
2018-01-22T19:36:14.588Z,28.00
2018-01-22T19:38:43.683Z,26.37
2018-01-22T19:41:12.922Z,28.83
2018-01-22T19:43:41.291Z,28.00
2018-01-22T19:46:09.604Z,25.93
2018-01-22T19:48:38.058Z,29.00
2018-01-22T19:51:06.395Z,26.30
2018-01-22T19:53:35.536Z,25.50
2018-01-22T19:56:03.866Z,27.27
2018-01-22T19:58:32.982Z,26.50
2018-01-22T20:01:01.418Z,24.80
2018-01-22T20:03:29.766Z,23.63
2018-01-22T20:05:58.117Z,25.40
2018-01-22T20:08:26.450Z,23.90
2018-01-22T20:10:54.904Z,23.47
2018-01-22T20:13:23.240Z,23.97
2018-01-22T20:15:52.416Z,23.07
2018-01-22T20:18:20.752Z,24.57
2018-01-22T20:20:49.107Z,22.83
2018-01-22T20:23:17.520Z,21.77
2018-01-22T20:25:45.917Z,22.27
2018-01-22T20:28:15.052Z,22.20
2018-01-22T20:30:43.410Z,21.20
2018-01-22T20:33:11.856Z,20.90
2018-01-22T20:35:40.174Z,21.47
2018-01-22T20:38:08.605Z,20.80
2018-01-22T20:40:36.991Z,22.37
2018-01-22T20:43:05.373Z,23.03
2018-01-22T20:45:33.696Z,23.93
2018-01-22T20:48:02.028Z,22.73
2018-01-22T20:50:30.440Z,23.83
2018-01-22T20:52:58.775Z,26.58
2018-01-22T20:55:27.126Z,23.53
2018-01-22T20:57:56.232Z,23.17
2018-01-22T21:00:24.644Z,24.27
2018-01-22T21:02:52.973Z,23.20
2018-01-22T21:05:22.100Z,23.13
2018-01-22T21:07:50.468Z,22.20
2018-01-22T21:10:18.799Z,23.10
2018-01-22T21:12:47.140Z,21.63
2018-01-22T21:15:15.505Z,21.70
2018-01-22T21:17:43.876Z,20.33
2018-01-22T21:20:12.284Z,20.53
2018-01-22T21:22:40.992Z,21.80
2018-01-22T21:25:09.348Z,20.80
2018-01-22T21:27:37.678Z,20.50
2018-01-22T21:30:06.016Z,19.67
2018-01-22T21:32:34.360Z,20.10
2018-01-22T21:35:02.853Z,20.40
2018-01-22T21:37:31.268Z,20.00
2018-01-22T21:39:59.600Z,21.67
2018-01-22T21:42:28.304Z,19.77
2018-01-22T21:44:56.840Z,19.67
2018-01-22T21:47:25.169Z,19.90
2018-01-22T21:49:53.576Z,19.43
2018-01-22T21:52:21.906Z,19.87
2018-01-22T21:54:50.247Z,19.00
2018-01-22T21:57:18.584Z,19.20
2018-01-22T21:59:46.947Z,18.73
2018-01-22T22:02:15.283Z,18.77
2018-01-22T22:04:43.626Z,19.73
2018-01-22T22:07:11.992Z,19.03
2018-01-22T22:09:40.336Z,18.47
2018-01-22T22:12:09.443Z,20.23
2018-01-22T22:14:38.560Z,19.27
2018-01-22T22:17:07.057Z,20.27
2018-01-22T22:19:35.393Z,19.20
2018-01-22T22:22:03.737Z,19.43
2018-01-22T22:24:32.075Z,19.67
2018-01-22T22:27:00.413Z,19.43
2018-01-22T22:29:28.790Z,20.27
2018-01-22T22:31:57.231Z,19.13
2018-01-22T22:34:25.671Z,18.00
2018-01-22T22:36:54.914Z,19.20
2018-01-22T22:39:23.230Z,19.53
2018-01-22T22:41:51.571Z,18.70
2018-01-22T22:44:19.915Z,20.07
2018-01-22T22:46:49.027Z,20.03
2018-01-22T22:49:17.360Z,17.90
2018-01-22T22:51:45.707Z,19.17
2018-01-22T22:54:14.041Z,20.17
2018-01-22T22:56:43.159Z,18.63
2018-01-22T22:59:11.506Z,19.30
2018-01-22T23:01:40.608Z,18.70
2018-01-22T23:04:09.724Z,20.53
2018-01-22T23:06:38.079Z,19.20
2018-01-22T23:09:07.214Z,18.43
2018-01-22T23:11:35.555Z,19.70
2018-01-22T23:14:04.702Z,19.20
2018-01-22T23:16:33.023Z,18.90
2018-01-22T23:19:02.203Z,18.40
2018-01-22T23:21:30.552Z,19.67
2018-01-22T23:23:58.906Z,17.87
2018-01-22T23:26:27.272Z,18.97
2018-01-22T23:28:56.375Z,18.57
2018-01-22T23:31:25.467Z,19.07
2018-01-22T23:33:54.579Z,18.47
2018-01-22T23:36:22.919Z,18.80
2018-01-22T23:38:51.279Z,19.93
2018-01-22T23:41:19.750Z,19.23
2018-01-22T23:43:48.110Z,18.03
2018-01-22T23:46:16.482Z,18.27
2018-01-22T23:48:44.816Z,18.40
2018-01-22T23:51:13.246Z,18.07
2018-01-22T23:53:41.575Z,18.83
2018-01-22T23:56:09.918Z,19.17
2018-01-22T23:58:38.260Z,18.13
